createdAt,value
2017-08-31T00:01:20.234Z,85.70
2017-08-31T00:03:48.543Z,85.60
2017-08-31T00:06:16.865Z,85.70
2017-08-31T00:08:45.166Z,86.00
2017-08-31T00:11:13.473Z,86.30
2017-08-31T00:13:41.762Z,86.20
2017-08-31T00:16:10.062Z,85.90
2017-08-31T00:18:38.408Z,86.10
2017-08-31T00:21:06.732Z,86.50
2017-08-31T00:23:35.186Z,86.60
2017-08-31T00:26:03.502Z,86.80
2017-08-31T00:28:31.809Z,86.60
2017-08-31T00:31:00.870Z,86.20
2017-08-31T00:33:29.971Z,86.10
2017-08-31T00:35:58.311Z,86.00
2017-08-31T00:38:26.635Z,85.90
2017-08-31T00:40:55.016Z,85.90
2017-08-31T00:43:23.313Z,85.90
2017-08-31T00:45:51.633Z,85.60
2017-08-31T00:48:20.690Z,85.20
2017-08-31T00:50:48.998Z,85.20
2017-08-31T00:53:17.302Z,85.40
2017-08-31T00:55:45.622Z,85.30
2017-08-31T00:58:13.918Z,86.00
2017-08-31T01:00:42.248Z,85.10
2017-08-31T01:03:10.594Z,85.30
2017-08-31T01:05:38.893Z,85.20
2017-08-31T01:08:07.224Z,85.00
2017-08-31T01:10:35.587Z,85.00
2017-08-31T01:13:03.888Z,85.40
2017-08-31T01:15:32.180Z,85.60
2017-08-31T01:18:00.509Z,85.60
2017-08-31T01:20:28.806Z,85.60
2017-08-31T01:22:57.104Z,85.30
2017-08-31T01:25:25.403Z,85.20
2017-08-31T01:27:54.019Z,84.90
2017-08-31T01:30:22.328Z,84.80
2017-08-31T01:32:50.664Z,84.70
2017-08-31T01:35:19.716Z,84.30
2017-08-31T01:37:48.013Z,84.30
2017-08-31T01:40:16.322Z,84.10
2017-08-31T01:42:44.641Z,83.50
2017-08-31T01:45:12.942Z,83.20
2017-08-31T01:47:47.081Z,83.30
2017-08-31T01:50:15.456Z,83.60
2017-08-31T01:52:43.835Z,84.00
2017-08-31T01:55:12.182Z,83.90
2017-08-31T01:57:40.549Z,83.90
2017-08-31T02:00:08.955Z,83.80
2017-08-31T02:02:37.233Z,83.90
2017-08-31T02:05:05.525Z,84.00
2017-08-31T02:07:33.820Z,83.90
2017-08-31T02:10:02.145Z,84.10
2017-08-31T02:12:30.434Z,84.10
2017-08-31T02:14:58.733Z,84.00
2017-08-31T02:17:27.061Z,85.40
2017-08-31T02:19:55.344Z,84.90
2017-08-31T02:22:23.668Z,85.10
2017-08-31T02:24:52.022Z,84.80
2017-08-31T02:27:20.296Z,84.40
2017-08-31T02:29:48.588Z,84.20
2017-08-31T02:32:16.890Z,83.80
2017-08-31T02:34:45.523Z,83.70
2017-08-31T02:37:13.855Z,84.00
2017-08-31T02:39:42.145Z,83.60
2017-08-31T02:42:10.464Z,83.40
2017-08-31T02:44:38.883Z,83.60
2017-08-31T02:47:07.171Z,84.10
2017-08-31T02:49:35.465Z,85.20
2017-08-31T02:52:03.755Z,86.10
2017-08-31T02:54:32.070Z,87.10
2017-08-31T02:57:00.354Z,87.80
2017-08-31T02:59:28.675Z,88.30
2017-08-31T03:01:57.030Z,88.80
2017-08-31T03:04:25.332Z,89.20
2017-08-31T03:06:54.916Z,90.50
2017-08-31T03:09:23.904Z,90.20
2017-08-31T03:11:52.864Z,90.40
2017-08-31T03:14:21.752Z,90.30
2017-08-31T03:16:50.738Z,90.50
2017-08-31T03:19:19.950Z,90.50
2017-08-31T03:21:48.253Z,90.50
2017-08-31T03:24:16.562Z,90.90
2017-08-31T03:26:44.855Z,91.10
2017-08-31T03:29:13.146Z,91.30
2017-08-31T03:31:42.235Z,91.40
2017-08-31T03:34:10.586Z,91.40
2017-08-31T03:36:38.885Z,91.80
2017-08-31T03:39:07.195Z,91.50
2017-08-31T03:41:35.505Z,91.70
2017-08-31T03:44:04.589Z,91.50
2017-08-31T03:46:32.886Z,91.50
2017-08-31T03:49:01.186Z,91.70
2017-08-31T03:51:29.530Z,91.50
2017-08-31T03:53:57.823Z,91.50
2017-08-31T03:56:26.119Z,91.60
2017-08-31T03:58:54.414Z,91.30
2017-08-31T04:01:22.715Z,90.90
2017-08-31T04:03:51.038Z,90.60
2017-08-31T04:06:19.339Z,90.70
2017-08-31T04:08:47.634Z,90.80
2017-08-31T04:11:15.934Z,90.80
2017-08-31T04:13:44.229Z,90.80
2017-08-31T04:16:12.559Z,90.50
2017-08-31T04:18:40.850Z,90.40
2017-08-31T04:21:09.174Z,90.10
2017-08-31T04:23:37.486Z,89.80
2017-08-31T04:26:05.774Z,90.10
2017-08-31T04:28:34.059Z,89.70
2017-08-31T04:31:02.351Z,89.60
2017-08-31T04:33:30.677Z,89.50
2017-08-31T04:35:59.013Z,88.80
2017-08-31T04:38:27.322Z,88.70
2017-08-31T04:40:55.645Z,88.90
2017-08-31T04:43:23.939Z,87.90
2017-08-31T04:45:52.240Z,88.40
2017-08-31T04:48:20.555Z,87.90
2017-08-31T04:50:48.901Z,88.90
2017-08-31T04:53:17.174Z,88.60
2017-08-31T04:55:45.478Z,88.50
2017-08-31T04:58:13.757Z,87.60
2017-08-31T05:00:42.086Z,87.90
2017-08-31T05:03:10.433Z,87.70
2017-08-31T05:05:38.717Z,87.50
2017-08-31T05:08:07.018Z,87.30
2017-08-31T05:10:35.336Z,86.60
2017-08-31T05:13:03.615Z,86.40
2017-08-31T05:15:31.926Z,86.60
2017-08-31T05:18:01.447Z,85.90
2017-08-31T05:20:29.745Z,85.80
2017-08-31T05:22:58.033Z,86.00
2017-08-31T05:25:27.096Z,85.80
2017-08-31T05:27:55.436Z,85.80
2017-08-31T05:30:23.741Z,85.30
2017-08-31T05:32:52.062Z,85.30
2017-08-31T05:35:20.584Z,85.00
2017-08-31T05:37:48.918Z,85.40
2017-08-31T05:40:17.205Z,84.80
2017-08-31T05:42:45.729Z,85.10
2017-08-31T05:45:14.029Z,84.70
2017-08-31T05:47:42.329Z,85.20
2017-08-31T05:50:10.663Z,84.30
2017-08-31T05:52:39.714Z,85.10
2017-08-31T05:55:08.073Z,85.20
2017-08-31T05:57:36.392Z,85.60
2017-08-31T06:00:04.665Z,86.30
2017-08-31T06:02:32.962Z,87.60
2017-08-31T06:05:01.265Z,88.50
2017-08-31T06:07:29.595Z,89.60
2017-08-31T06:09:57.888Z,90.10
2017-08-31T06:12:26.219Z,90.00
2017-08-31T06:14:54.506Z,90.00
2017-08-31T06:17:22.817Z,90.30
2017-08-31T06:19:51.243Z,90.10
2017-08-31T06:22:19.541Z,90.00
2017-08-31T06:24:47.833Z,90.00
2017-08-31T06:27:16.135Z,90.30
2017-08-31T06:29:44.423Z,90.90
2017-08-31T06:32:12.730Z,90.70
2017-08-31T06:34:41.152Z,90.80
2017-08-31T06:37:09.448Z,91.10
2017-08-31T06:39:37.789Z,91.20
2017-08-31T06:42:06.120Z,91.40
2017-08-31T06:44:34.418Z,91.60
2017-08-31T06:47:03.528Z,91.20
2017-08-31T06:49:31.837Z,91.10
2017-08-31T06:52:00.133Z,91.90
2017-08-31T06:54:28.563Z,91.60
2017-08-31T06:56:57.620Z,92.50
2017-08-31T06:59:25.907Z,92.50
2017-08-31T07:01:54.204Z,92.50
2017-08-31T07:04:22.514Z,91.80
2017-08-31T07:06:50.789Z,91.30
2017-08-31T07:09:19.105Z,91.80
2017-08-31T07:11:47.387Z,91.70
2017-08-31T07:14:15.687Z,90.80
2017-08-31T07:16:43.976Z,90.00
2017-08-31T07:19:12.250Z,90.50
2017-08-31T07:21:40.566Z,90.90
2017-08-31T07:24:08.862Z,90.90
2017-08-31T07:26:37.192Z,91.60
2017-08-31T07:29:05.493Z,91.80
2017-08-31T07:31:33.818Z,92.10
2017-08-31T07:34:02.107Z,91.50
2017-08-31T07:36:30.411Z,91.30
2017-08-31T07:38:58.737Z,92.00
2017-08-31T07:41:27.014Z,91.80
2017-08-31T07:43:56.068Z,92.10
2017-08-31T07:46:24.350Z,92.20
2017-08-31T07:48:52.654Z,91.30
2017-08-31T07:51:20.978Z,91.20
2017-08-31T07:53:49.278Z,91.70
2017-08-31T07:56:18.513Z,91.90
2017-08-31T07:58:46.813Z,91.90
2017-08-31T08:01:15.165Z,91.70
2017-08-31T08:03:43.470Z,91.50
2017-08-31T08:06:12.528Z,91.70
2017-08-31T08:08:40.834Z,91.70
2017-08-31T08:11:09.121Z,91.80
2017-08-31T08:13:37.402Z,91.10
2017-08-31T08:16:05.729Z,91.40
2017-08-31T08:18:34.788Z,91.90
2017-08-31T08:21:03.099Z,91.90
2017-08-31T08:23:31.379Z,92.10
2017-08-31T08:25:59.677Z,91.50
2017-08-31T08:28:27.980Z,91.80
2017-08-31T08:30:56.251Z,91.30
2017-08-31T08:33:24.570Z,91.00
2017-08-31T08:35:52.918Z,91.70
2017-08-31T08:38:21.204Z,91.30
2017-08-31T08:40:49.477Z,90.30
2017-08-31T08:43:17.773Z,90.90
2017-08-31T08:45:46.041Z,91.80
2017-08-31T08:48:14.363Z,91.00
2017-08-31T08:50:42.650Z,90.90
2017-08-31T08:53:10.928Z,91.10
2017-08-31T08:55:39.255Z,91.90
2017-08-31T08:58:07.539Z,91.20
2017-08-31T09:00:36.732Z,91.50
2017-08-31T09:03:05.015Z,91.00
2017-08-31T09:05:33.347Z,92.00
2017-08-31T09:08:01.635Z,92.10
2017-08-31T09:10:29.912Z,91.50
2017-08-31T09:12:58.230Z,91.50
2017-08-31T09:15:26.508Z,91.90
2017-08-31T09:17:54.839Z,92.20
2017-08-31T09:20:23.160Z,91.60
2017-08-31T09:22:51.439Z,92.00
2017-08-31T09:25:19.721Z,91.90
2017-08-31T09:27:48.003Z,92.00
2017-08-31T09:30:16.314Z,91.20
2017-08-31T09:32:44.618Z,90.90
2017-08-31T09:35:14.017Z,91.30
2017-08-31T09:37:43.233Z,91.30
2017-08-31T09:40:11.513Z,90.90
2017-08-31T09:42:39.801Z,89.60
2017-08-31T09:45:08.213Z,90.40
2017-08-31T09:47:36.498Z,90.90
2017-08-31T09:50:04.780Z,90.10
2017-08-31T09:52:33.066Z,90.60
2017-08-31T09:55:01.343Z,91.10
2017-08-31T09:57:29.673Z,90.70
2017-08-31T09:59:57.958Z,91.10
2017-08-31T10:02:27.034Z,91.20
2017-08-31T10:04:55.317Z,91.20
2017-08-31T10:07:23.597Z,92.00
2017-08-31T10:09:51.925Z,90.80
2017-08-31T10:12:20.978Z,88.90
2017-08-31T10:14:49.259Z,88.90
2017-08-31T10:17:17.546Z,90.00
2017-08-31T10:19:45.867Z,90.80
2017-08-31T10:22:14.145Z,90.00
2017-08-31T10:24:43.235Z,89.90
2017-08-31T10:27:11.509Z,89.90
2017-08-31T10:29:39.801Z,90.60
2017-08-31T10:32:08.108Z,90.60
2017-08-31T10:34:36.391Z,90.20
2017-08-31T10:37:04.722Z,91.00
2017-08-31T10:39:33.031Z,88.70
2017-08-31T10:42:02.110Z,88.10
2017-08-31T10:44:30.393Z,88.00
2017-08-31T10:46:58.689Z,88.20
2017-08-31T10:49:27.009Z,89.30
2017-08-31T10:51:56.313Z,86.70
2017-08-31T10:54:25.381Z,87.60
2017-08-31T10:56:53.841Z,87.60
2017-08-31T10:59:22.182Z,88.60
2017-08-31T11:01:50.601Z,83.40
2017-08-31T11:04:19.662Z,84.30
2017-08-31T11:06:48.751Z,82.40
2017-08-31T11:09:17.037Z,82.40
2017-08-31T11:11:46.132Z,84.10
2017-08-31T11:14:14.424Z,84.10
2017-08-31T11:16:42.711Z,82.80
2017-08-31T11:19:11.032Z,83.60
2017-08-31T11:21:39.302Z,84.50
2017-08-31T11:24:07.600Z,82.30
2017-08-31T11:26:35.942Z,79.90
2017-08-31T11:29:04.332Z,79.60
2017-08-31T11:31:32.592Z,77.60
2017-08-31T11:34:00.931Z,76.70
2017-08-31T11:36:29.626Z,79.00
2017-08-31T11:38:57.750Z,81.50
2017-08-31T11:41:26.065Z,82.40
2017-08-31T11:43:54.355Z,83.40
2017-08-31T11:46:22.667Z,83.90
2017-08-31T11:48:50.949Z,83.30
2017-08-31T11:51:19.235Z,79.90
2017-08-31T11:53:47.549Z,78.00
2017-08-31T11:56:16.632Z,79.60
2017-08-31T11:58:44.901Z,79.60
2017-08-31T12:01:13.189Z,78.40
2017-08-31T12:03:41.471Z,80.80
2017-08-31T12:06:09.768Z,77.70
2017-08-31T12:08:38.038Z,76.90
2017-08-31T12:11:06.323Z,77.40
2017-08-31T12:13:34.603Z,77.80
2017-08-31T12:16:02.893Z,76.90
2017-08-31T12:18:31.177Z,77.70
2017-08-31T12:20:59.469Z,78.50
2017-08-31T12:23:27.778Z,81.10
2017-08-31T12:25:56.060Z,78.30
2017-08-31T12:28:24.367Z,78.20
2017-08-31T12:30:52.659Z,78.40
2017-08-31T12:33:20.942Z,78.70
2017-08-31T12:35:49.241Z,80.20
2017-08-31T12:38:17.546Z,79.20
2017-08-31T12:40:45.861Z,78.70
2017-08-31T12:43:14.146Z,80.60
2017-08-31T12:45:42.425Z,81.20
2017-08-31T12:48:10.752Z,80.80
2017-08-31T12:50:39.034Z,84.00
2017-08-31T12:53:07.319Z,82.40
2017-08-31T12:55:35.599Z,81.50
2017-08-31T12:58:03.886Z,82.60
2017-08-31T13:00:32.221Z,81.50
2017-08-31T13:03:00.515Z,79.40
2017-08-31T13:05:28.794Z,78.90
2017-08-31T13:07:57.109Z,80.50
2017-08-31T13:10:25.430Z,83.60
2017-08-31T13:12:53.718Z,83.50
2017-08-31T13:15:22.006Z,85.10
2017-08-31T13:17:50.291Z,85.70
2017-08-31T13:20:18.591Z,86.40
2017-08-31T13:22:46.870Z,87.80
2017-08-31T13:25:15.158Z,90.30
2017-08-31T13:27:44.210Z,90.10
2017-08-31T13:30:12.536Z,90.00
2017-08-31T13:32:40.966Z,90.20
2017-08-31T13:35:09.911Z,90.10
2017-08-31T13:37:38.197Z,89.30
2017-08-31T13:40:06.499Z,89.60
2017-08-31T13:42:34.817Z,90.80
2017-08-31T13:45:03.109Z,90.50
2017-08-31T13:47:31.406Z,89.20
2017-08-31T13:49:59.694Z,89.90
2017-08-31T13:52:28.238Z,90.40
2017-08-31T13:54:56.557Z,90.50
2017-08-31T13:57:24.868Z,90.40
2017-08-31T13:59:53.152Z,90.90
2017-08-31T14:02:21.436Z,90.80
2017-08-31T14:04:49.713Z,91.10
2017-08-31T14:07:18.765Z,90.10
2017-08-31T14:09:47.929Z,90.30
2017-08-31T14:12:16.219Z,90.30
2017-08-31T14:14:44.646Z,90.30
2017-08-31T14:17:12.929Z,90.30
2017-08-31T14:19:41.338Z,90.70
2017-08-31T14:22:09.622Z,90.60
2017-08-31T14:24:37.971Z,91.10
2017-08-31T14:27:06.294Z,90.90
2017-08-31T14:29:34.600Z,90.90
2017-08-31T14:32:03.128Z,91.40
2017-08-31T14:34:31.415Z,91.70
2017-08-31T14:36:59.689Z,89.90
2017-08-31T14:39:27.970Z,89.80
2017-08-31T14:41:56.280Z,90.00
2017-08-31T14:44:24.579Z,88.40
2017-08-31T14:46:52.869Z,88.30
2017-08-31T14:49:21.152Z,85.50
2017-08-31T14:51:49.476Z,85.90
2017-08-31T14:54:17.762Z,85.10
2017-08-31T14:56:46.044Z,87.00
2017-08-31T14:59:15.090Z,86.40
2017-08-31T15:01:43.377Z,86.30
2017-08-31T15:04:11.665Z,84.30
2017-08-31T15:06:39.945Z,85.50
2017-08-31T15:09:08.246Z,84.30
2017-08-31T15:11:36.525Z,86.00
2017-08-31T15:14:04.809Z,84.10
2017-08-31T15:16:33.124Z,88.50
2017-08-31T15:19:01.794Z,85.50
2017-08-31T15:21:30.138Z,87.90
2017-08-31T15:23:58.455Z,85.00
2017-08-31T15:26:26.809Z,86.80
2017-08-31T15:28:55.087Z,87.70
2017-08-31T15:31:23.414Z,88.00
2017-08-31T15:33:52.473Z,88.10
2017-08-31T15:36:20.792Z,88.00
2017-08-31T15:38:49.221Z,87.90
2017-08-31T15:41:17.621Z,88.60
2017-08-31T15:43:45.918Z,89.00
2017-08-31T15:46:14.277Z,88.10
2017-08-31T15:48:43.333Z,87.30
2017-08-31T15:51:11.666Z,87.20
2017-08-31T15:53:40.733Z,86.40
2017-08-31T15:56:09.026Z,86.40
2017-08-31T15:58:37.327Z,86.00
2017-08-31T16:01:05.623Z,87.70
2017-08-31T16:03:33.925Z,84.00
2017-08-31T16:06:02.214Z,82.70
2017-08-31T16:08:31.289Z,84.40
2017-08-31T16:10:59.598Z,84.20
2017-08-31T16:13:27.907Z,83.10
2017-08-31T16:15:56.220Z,83.70
2017-08-31T16:18:24.509Z,81.90
2017-08-31T16:20:52.803Z,83.20
2017-08-31T16:23:21.119Z,84.70
2017-08-31T16:25:49.437Z,85.20
2017-08-31T16:28:17.745Z,83.40
2017-08-31T16:30:46.049Z,85.90
2017-08-31T16:33:15.113Z,85.00
2017-08-31T16:35:43.400Z,85.00
2017-08-31T16:38:12.169Z,85.00
2017-08-31T16:40:40.494Z,85.20
2017-08-31T16:43:08.819Z,85.40
2017-08-31T16:45:37.909Z,86.00
2017-08-31T16:48:06.207Z,86.00
2017-08-31T16:50:34.552Z,84.80
2017-08-31T16:53:02.863Z,85.20
2017-08-31T16:55:31.146Z,86.40
2017-08-31T16:57:59.459Z,86.10
2017-08-31T17:00:28.638Z,85.10
2017-08-31T17:02:56.934Z,86.70
2017-08-31T17:05:25.262Z,86.70
2017-08-31T17:07:53.634Z,87.30
2017-08-31T17:10:22.780Z,89.00
2017-08-31T17:12:51.167Z,88.90
2017-08-31T17:15:20.235Z,88.50
2017-08-31T17:17:48.554Z,88.30
2017-08-31T17:20:16.858Z,87.80
2017-08-31T17:22:45.149Z,87.70
2017-08-31T17:25:13.446Z,86.80
2017-08-31T17:27:41.738Z,87.60
2017-08-31T17:30:10.187Z,87.90
2017-08-31T17:32:39.244Z,87.30
2017-08-31T17:35:07.558Z,87.20
2017-08-31T17:37:35.894Z,88.10
2017-08-31T17:40:04.177Z,87.80
2017-08-31T17:42:32.487Z,89.30
2017-08-31T17:45:00.770Z,89.00
2017-08-31T17:47:29.063Z,89.20
2017-08-31T17:49:57.410Z,89.90
2017-08-31T17:52:26.532Z,90.50
2017-08-31T17:54:54.858Z,90.40
2017-08-31T17:57:23.151Z,91.00
2017-08-31T17:59:51.449Z,90.90
2017-08-31T18:02:19.775Z,90.80
2017-08-31T18:04:48.075Z,90.80
2017-08-31T18:07:16.362Z,90.70
2017-08-31T18:09:44.659Z,90.30
2017-08-31T18:12:12.950Z,90.40
2017-08-31T18:14:41.279Z,90.70
2017-08-31T18:17:09.578Z,90.60
2017-08-31T18:19:37.869Z,90.00
2017-08-31T18:22:06.170Z,88.80
2017-08-31T18:24:34.475Z,90.20
2017-08-31T18:27:03.958Z,90.80
2017-08-31T18:29:32.245Z,90.80
2017-08-31T18:32:00.553Z,90.00
2017-08-31T18:34:28.850Z,90.40
2017-08-31T18:36:57.146Z,90.30
2017-08-31T18:39:25.503Z,90.70
2017-08-31T18:41:53.818Z,90.80
2017-08-31T18:44:22.111Z,91.10
2017-08-31T18:46:50.404Z,91.20
2017-08-31T18:49:18.946Z,90.60
2017-08-31T18:51:47.580Z,90.60
2017-08-31T18:54:15.864Z,90.50
2017-08-31T18:56:44.145Z,90.80
2017-08-31T18:59:12.456Z,90.50
2017-08-31T19:01:40.751Z,91.00
2017-08-31T19:04:09.041Z,91.00
2017-08-31T19:06:37.354Z,91.30
2017-08-31T19:09:06.427Z,90.90
2017-08-31T19:11:34.711Z,90.90
2017-08-31T19:14:03.009Z,90.80
2017-08-31T19:16:31.307Z,90.60
2017-08-31T19:18:59.633Z,91.00
2017-08-31T19:21:27.934Z,90.90
2017-08-31T19:23:56.235Z,90.60
2017-08-31T19:26:24.539Z,90.80
2017-08-31T19:28:52.835Z,91.70
2017-08-31T19:31:21.134Z,90.90
2017-08-31T19:33:49.444Z,91.30
2017-08-31T19:36:17.723Z,91.50
2017-08-31T19:38:46.072Z,91.80
2017-08-31T19:41:14.357Z,91.70
2017-08-31T19:43:42.652Z,91.70
2017-08-31T19:46:10.940Z,91.50
2017-08-31T19:48:39.234Z,91.50
2017-08-31T19:51:07.558Z,91.70
2017-08-31T19:53:35.850Z,91.60
2017-08-31T19:56:04.134Z,92.00
2017-08-31T19:58:32.450Z,91.70
2017-08-31T20:01:01.514Z,91.60
2017-08-31T20:03:29.809Z,91.60
2017-08-31T20:05:58.127Z,91.90
2017-08-31T20:08:26.455Z,92.20
2017-08-31T20:10:54.766Z,91.80
2017-08-31T20:13:23.062Z,92.00
2017-08-31T20:15:51.379Z,92.10
2017-08-31T20:18:19.669Z,92.50
2017-08-31T20:20:47.954Z,92.50
2017-08-31T20:23:16.275Z,92.40
2017-08-31T20:25:44.629Z,92.30
2017-08-31T20:28:12.930Z,92.40
2017-08-31T20:30:41.983Z,92.40
2017-08-31T20:33:11.036Z,93.00
2017-08-31T20:35:39.315Z,92.90
2017-08-31T20:38:07.632Z,92.80
2017-08-31T20:40:36.682Z,93.20
2017-08-31T20:43:04.999Z,93.20
2017-08-31T20:45:33.307Z,93.10
2017-08-31T20:48:01.596Z,93.20
2017-08-31T20:50:29.878Z,93.20
2017-08-31T20:52:58.182Z,93.20
2017-08-31T20:55:26.474Z,93.30
2017-08-31T20:57:55.525Z,93.30
2017-08-31T21:00:23.841Z,93.30
2017-08-31T21:02:52.131Z,93.60
2017-08-31T21:05:20.434Z,93.50
2017-08-31T21:07:48.730Z,93.50
2017-08-31T21:10:17.031Z,93.40
2017-08-31T21:12:46.188Z,93.50
2017-08-31T21:15:14.478Z,93.90
2017-08-31T21:17:42.762Z,93.90
2017-08-31T21:20:11.077Z,93.90
2017-08-31T21:22:39.372Z,94.00
2017-08-31T21:25:07.656Z,94.30
2017-08-31T21:27:35.934Z,94.10
2017-08-31T21:30:04.274Z,94.20
2017-08-31T21:32:32.574Z,94.20
2017-08-31T21:35:00.879Z,94.20
2017-08-31T21:37:29.212Z,94.20
2017-08-31T21:39:57.526Z,94.10
2017-08-31T21:42:25.809Z,94.20
2017-08-31T21:44:54.107Z,94.20
2017-08-31T21:47:22.406Z,94.20
2017-08-31T21:49:50.732Z,94.20
2017-08-31T21:52:19.010Z,93.90
2017-08-31T21:54:47.297Z,94.20
2017-08-31T21:57:15.605Z,94.20
2017-08-31T21:59:43.924Z,94.20
2017-08-31T22:02:12.279Z,94.20
2017-08-31T22:04:40.578Z,94.30
2017-08-31T22:07:08.882Z,94.30
2017-08-31T22:09:37.202Z,94.50
2017-08-31T22:12:05.498Z,94.50
2017-08-31T22:14:33.772Z,94.50
2017-08-31T22:17:02.054Z,94.80
2017-08-31T22:19:31.126Z,94.80
2017-08-31T22:21:59.435Z,94.80
2017-08-31T22:24:27.751Z,94.80
2017-08-31T22:26:56.073Z,94.90
2017-08-31T22:29:24.394Z,95.00
2017-08-31T22:31:52.688Z,95.10
2017-08-31T22:34:20.989Z,95.00
2017-08-31T22:36:50.049Z,95.10
2017-08-31T22:39:18.347Z,95.10
2017-08-31T22:41:46.634Z,95.20
2017-08-31T22:44:14.916Z,95.20
2017-08-31T22:46:43.231Z,95.10
2017-08-31T22:49:11.551Z,95.10
2017-08-31T22:51:40.610Z,94.80
2017-08-31T22:54:20.657Z,94.80
2017-08-31T22:56:52.638Z,95.10
2017-08-31T22:59:20.933Z,95.10
2017-08-31T23:01:49.214Z,95.00
2017-08-31T23:04:17.525Z,95.00
2017-08-31T23:06:45.835Z,95.20
2017-08-31T23:09:14.140Z,95.50
2017-08-31T23:11:42.442Z,95.30
2017-08-31T23:14:10.750Z,95.30
2017-08-31T23:16:39.037Z,95.40
2017-08-31T23:19:07.349Z,95.00
2017-08-31T23:21:35.773Z,95.00
2017-08-31T23:24:04.079Z,95.10
2017-08-31T23:26:32.363Z,95.10
2017-08-31T23:29:00.656Z,95.10
2017-08-31T23:31:29.702Z,95.20
2017-08-31T23:33:58.049Z,95.20
2017-08-31T23:36:26.366Z,95.10
2017-08-31T23:38:54.675Z,95.10
2017-08-31T23:41:22.965Z,94.80
2017-08-31T23:43:51.295Z,95.10
2017-08-31T23:46:19.582Z,94.80
2017-08-31T23:48:47.899Z,95.10
2017-08-31T23:51:16.190Z,95.10
2017-08-31T23:53:44.474Z,95.10
2017-08-31T23:56:12.773Z,95.20
2017-08-31T23:58:41.825Z,95.30
